Time;durP1;ratioP1;P1;durP2;ratioP2;P2;SDS_P1;SDS_P2;PMS_P1;PMS_P2;Temp;Humidity;BMP_temperature;BMP_pressure;BME280_temperature;BME280_humidity;BME280_pressure;Samples;Min_cycle;Max_cycle;Signal;HPM_P1;HPM_P2
2020/03/23 00:00:51;;;;;;;4.9;3.5;;;;;;;0.46;58.82422;948.3538;;;;
2020/03/23 00:03:15;;;;;;;5.7;3.6;;;;;;;0.37;59.79395;948.4028;;;;
2020/03/23 00:05:59;;;;;;;5.5;3.3;;;;;;;0.37;59.63672;948.4333;;;;
2020/03/23 00:08:28;;;;;;;6.8;3.7;;;;;;;0.36;59.55664;948.3987;;;;
2020/03/23 00:10:53;;;;;;;5.7;3.8;;;;;;;0.3;59.24707;948.4163;;;;
2020/03/23 00:13:18;;;;;;;6.8;3.7;;;;;;;0.4;58.84961;948.3666;;;;
2020/03/23 00:15:43;;;;;;;6.9;4.1;;;;;;;0.34;59.38867;948.4423;;;;
2020/03/23 00:18:11;;;;;;;5.7;3.6;;;;;;;0.32;59.38477;948.4623;;;;
2020/03/23 00:21:01;;;;;;;6;4;;;;;;;0.28;60.02637;948.4684;;;;
2020/03/23 00:23:26;;;;;;;4.9;3.8;;;;;;;0.18;58.88672;948.3928;;;;
2020/03/23 00:25:51;;;;;;;6.5;4.1;;;;;;;0.19;59.88965;948.3389;;;;
2020/03/23 00:28:23;;;;;;;5.7;3.8;;;;;;;0.21;59.61426;948.4009;;;;
2020/03/23 00:30:48;;;;;;;6.4;3.9;;;;;;;0.11;60.03516;948.4227;;;;
2020/03/23 00:33:22;;;;;;;6.7;4.1;;;;;;;-0.02;59.52734;948.4131;;;;
2020/03/23 00:35:51;;;;;;;6.3;4;;;;;;;0.08;60.19727;948.3639;;;;
2020/03/23 00:38:25;;;;;;;6;4.1;;;;;;;-0.13;59.7666;948.2891;;;;
2020/03/23 00:41:09;;;;;;;6.4;4.2;;;;;;;-0.34;61.01563;948.3706;;;;
2020/03/23 00:43:34;;;;;;;5.3;3.8;;;;;;;-0.27;61.15039;948.4182;;;;
2020/03/23 00:46:00;;;;;;;7;4.3;;;;;;;-0.35;61.60547;948.3865;;;;
2020/03/23 00:48:48;;;;;;;6.9;4.2;;;;;;;-0.16;60.79688;948.3256;;;;
2020/03/23 00:51:27;;;;;;;5.9;4.3;;;;;;;-0.34;61.56152;948.4191;;;;
2020/03/23 00:53:52;;;;;;;6.2;4.1;;;;;;;-0.2;61.19238;948.3812;;;;
2020/03/23 00:56:29;;;;;;;6;4.2;;;;;;;-0.15;61.10059;948.3491;;;;
2020/03/23 00:58:57;;;;;;;6.7;4.2;;;;;;;-0.26;61.2959;948.4119;;;;
2020/03/23 01:01:22;;;;;;;6;4.3;;;;;;;-0.24;61.46582;948.3731;;;;
2020/03/23 01:03:57;;;;;;;7;4.4;;;;;;;-0.25;61.25293;948.437;;;;
2020/03/23 01:06:32;;;;;;;6.7;4.2;;;;;;;-0.18;61.25098;948.4094;;;;
2020/03/23 01:08:58;;;;;;;6.4;4.2;;;;;;;-0.18;61.12891;948.35;;;;
2020/03/23 01:11:23;;;;;;;6.5;4.4;;;;;;;-0.25;61.08496;948.3356;;;;
2020/03/23 01:13:48;;;;;;;6.9;4.1;;;;;;;-0.29;62.28125;948.383;;;;
2020/03/23 01:16:15;;;;;;;6.7;4.4;;;;;;;-0.13;60.62402;948.3407;;;;
2020/03/23 01:18:56;;;;;;;7.1;4.3;;;;;;;-0.23;61.46875;948.3084;;;;
2020/03/23 01:21:23;;;;;;;6.6;4.6;;;;;;;-0.12;61.37207;948.3899;;;;
2020/03/23 01:23:55;;;;;;;6.7;4.5;;;;;;;-0.09;61.44238;948.3535;;;;
2020/03/23 01:26:20;;;;;;;8.2;4.6;;;;;;;-0.12;61.0498;948.3846;;;;
2020/03/23 01:28:46;;;;;;;6.7;4.4;;;;;;;-0.09;61.42188;948.389;;;;
2020/03/23 01:31:20;;;;;;;7.2;4.8;;;;;;;-0.03;61.16309;948.3868;;;;
2020/03/23 01:33:45;;;;;;;5.7;4.2;;;;;;;-0.32;61.69922;948.4192;;;;
2020/03/23 01:36:10;;;;;;;7;4.7;;;;;;;-0.27;62.48633;948.4525;;;;
2020/03/23 01:38:35;;;;;;;6.5;4.8;;;;;;;-0.2;62.50781;948.3442;;;;
2020/03/23 01:41:00;;;;;;;7.8;4.4;;;;;;;-0.2;61.77148;948.2851;;;;
2020/03/23 01:43:25;;;;;;;6;4.5;;;;;;;-0.38;62.26855;948.3475;;;;
2020/03/23 01:45:50;;;;;;;7.4;4.6;;;;;;;-0.41;61.83008;948.3796;;;;
2020/03/23 01:48:16;;;;;;;6.8;4.3;;;;;;;-0.33;62.29883;948.3187;;;;
2020/03/23 01:50:41;;;;;;;7.7;5.1;;;;;;;-0.38;62.3252;948.3541;;;;
2020/03/23 01:53:06;;;;;;;7.5;4.9;;;;;;;-0.35;62.6748;948.4006;;;;
2020/03/23 01:55:31;;;;;;;7;4.6;;;;;;;-0.36;62.85156;948.3592;;;;
2020/03/23 01:57:56;;;;;;;6.3;4.6;;;;;;;-0.39;62.58984;948.3369;;;;
2020/03/23 02:00:21;;;;;;;7.4;5.1;;;;;;;-0.25;62.16504;948.3903;;;;
2020/03/23 02:02:47;;;;;;;7.1;4.6;;;;;;;-0.32;62.72266;948.355;;;;
2020/03/23 02:05:12;;;;;;;7;4.8;;;;;;;-0.5;63.38574;948.3013;;;;
2020/03/23 02:07:37;;;;;;;6.5;4.5;;;;;;;-0.48;63.55664;948.3675;;;;
2020/03/23 02:10:02;;;;;;;6.2;4.5;;;;;;;-0.46;62.79199;948.3603;;;;
2020/03/23 02:12:27;;;;;;;7.5;4.7;;;;;;;-0.49;62.46387;948.3445;;;;
2020/03/23 02:14:52;;;;;;;6.9;4.7;;;;;;;-0.47;62.38867;948.3678;;;;
2020/03/23 02:17:17;;;;;;;7.1;4.9;;;;;;;-0.47;62.41211;948.3488;;;;
2020/03/23 02:19:42;;;;;;;7;4.6;;;;;;;-0.43;62.48438;948.3408;;;;
2020/03/23 02:22:07;;;;;;;7;4.7;;;;;;;-0.37;62.04883;948.342;;;;
2020/03/23 02:24:32;;;;;;;5.8;4.4;;;;;;;-0.37;62.21582;948.3639;;;;
2020/03/23 02:26:57;;;;;;;6.1;4.4;;;;;;;-0.52;62.4375;948.3428;;;;
2020/03/23 02:29:22;;;;;;;7.7;5.2;;;;;;;-0.6;63.41504;948.3045;;;;
2020/03/23 02:31:48;;;;;;;7;5.1;;;;;;;-0.79;63.42188;948.3536;;;;
2020/03/23 02:38:02;;;;;;;8.5;5.2;;;;;;;-0.63;63.18848;948.3579;;;;
2020/03/23 02:39:10;;;;;;;7.8;4.8;;;;;;;-0.67;63.51563;948.327;;;;
2020/03/23 02:43:55;;;;;;;7.5;5.1;;;;;;;-0.96;64.89648;948.3493;;;;
2020/03/23 02:46:20;;;;;;;7.5;5.1;;;;;;;-0.87;65.00879;948.342;;;;
2020/03/23 02:48:48;;;;;;;7.8;4.9;;;;;;;-0.79;64.06543;948.3334;;;;
2020/03/23 02:51:13;;;;;;;6.8;4.9;;;;;;;-0.88;65.06348;948.277;;;;
2020/03/23 02:53:38;;;;;;;7.3;5.2;;;;;;;-0.85;64.73535;948.2287;;;;
2020/03/23 02:56:03;;;;;;;9.4;5.4;;;;;;;-0.85;65.01172;948.2003;;;;
2020/03/23 02:58:28;;;;;;;8.7;5.5;;;;;;;-0.87;65.24121;948.2495;;;;
2020/03/23 03:00:54;;;;;;;7.7;5.1;;;;;;;-0.77;64.4248;948.2533;;;;
2020/03/23 03:03:42;;;;;;;9.4;5.2;;;;;;;-0.77;64.1123;948.1601;;;;
2020/03/23 03:06:07;;;;;;;7.7;5.1;;;;;;;-0.87;64.62012;948.1697;;;;
2020/03/23 03:08:32;;;;;;;7.5;5.3;;;;;;;-0.89;65.06152;948.124;;;;
2020/03/23 03:11:19;;;;;;;6.6;5;;;;;;;-0.85;65.03418;948.2449;;;;
2020/03/23 03:13:44;;;;;;;6.9;5.1;;;;;;;-0.9;65.15918;948.2499;;;;
2020/03/23 03:16:27;;;;;;;9.2;4.9;;;;;;;-0.9;64.40332;948.2349;;;;
2020/03/23 03:18:52;;;;;;;8;5.1;;;;;;;-0.85;64.24609;948.2256;;;;
2020/03/23 03:21:18;;;;;;;7.7;5.3;;;;;;;-1.03;65.22852;948.2584;;;;
2020/03/23 03:23:46;;;;;;;8.8;5.7;;;;;;;-0.97;65.3584;948.231;;;;
2020/03/23 03:26:17;;;;;;;8.3;5.4;;;;;;;-1.14;65.64453;948.2692;;;;
2020/03/23 03:28:42;;;;;;;7.2;5.2;;;;;;;-0.98;65.29199;948.2672;;;;
2020/03/23 03:31:08;;;;;;;8.1;5.2;;;;;;;-0.89;64.92676;948.2372;;;;
2020/03/23 03:33:33;;;;;;;7.7;5.3;;;;;;;-0.89;64.76172;948.2491;;;;
2020/03/23 03:35:58;;;;;;;7.5;5.4;;;;;;;-1.13;65.96777;948.2121;;;;
2020/03/23 03:38:24;;;;;;;8.2;5.6;;;;;;;-0.96;65.78418;948.2004;;;;
2020/03/23 03:40:55;;;;;;;8.8;5.4;;;;;;;-0.9;65.06055;948.1727;;;;
2020/03/23 03:43:21;;;;;;;7.9;5.7;;;;;;;-0.89;64.4043;948.1855;;;;
2020/03/23 03:45:46;;;;;;;9;5.8;;;;;;;-0.92;64.95605;948.2213;;;;
2020/03/23 03:48:32;;;;;;;7.9;5.6;;;;;;;-1.05;66.10156;948.2611;;;;
2020/03/23 03:50:58;;;;;;;7.5;5.5;;;;;;;-0.94;65.32031;948.2206;;;;
2020/03/23 03:53:24;;;;;;;7.8;5.7;;;;;;;-0.95;66.01855;948.2141;;;;
2020/03/23 03:55:49;;;;;;;7;5.6;;;;;;;-0.94;65.91992;948.2206;;;;
2020/03/23 03:58:14;;;;;;;7.5;5.6;;;;;;;-1;66.58789;948.2817;;;;
2020/03/23 04:02:30;;;;;;;8.1;5.6;;;;;;;-1.06;66.15723;948.3279;;;;
2020/03/23 04:04:55;;;;;;;7.2;5.5;;;;;;;-1.04;65.90625;948.3303;;;;
2020/03/23 04:07:20;;;;;;;9;5.9;;;;;;;-1.07;65.60059;948.2845;;;;
2020/03/23 04:09:46;;;;;;;7.4;5.6;;;;;;;-1.1;66.38379;948.2648;;;;
2020/03/23 04:12:12;;;;;;;7.8;5.6;;;;;;;-1.05;66.57031;948.2327;;;;
2020/03/23 04:14:38;;;;;;;8;5.7;;;;;;;-1.04;66.60449;948.2612;;;;
2020/03/23 04:17:03;;;;;;;7.7;5.4;;;;;;;-1.11;66.57227;948.2355;;;;
2020/03/23 04:19:28;;;;;;;8.3;5.6;;;;;;;-1.23;66.78613;948.2183;;;;
2020/03/23 04:21:57;;;;;;;7.8;6;;;;;;;-1.2;66.99023;948.1512;;;;
2020/03/23 04:24:23;;;;;;;8.5;5.7;;;;;;;-1.12;67.02539;948.19;;;;
2020/03/23 04:26:57;;;;;;;8;6.2;;;;;;;-1.12;66.99316;948.1622;;;;
2020/03/23 04:29:22;;;;;;;8.8;6.1;;;;;;;-1.17;67.41797;948.1806;;;;
2020/03/23 04:31:47;;;;;;;8.6;5.9;;;;;;;-1.16;67.47461;948.176;;;;
2020/03/23 04:34:12;;;;;;;8.3;6.3;;;;;;;-1.16;67.66406;948.1688;;;;
2020/03/23 04:36:38;;;;;;;8.4;6.4;;;;;;;-1.18;68.33691;948.1258;;;;
2020/03/23 04:39:03;;;;;;;9.1;6.2;;;;;;;-1.21;68.55566;948.1222;;;;
2020/03/23 04:41:31;;;;;;;8.7;6.2;;;;;;;-1.24;69.27246;948.1713;;;;
2020/03/23 04:43:56;;;;;;;9.4;6.4;;;;;;;-1.22;68.49902;948.1771;;;;
2020/03/23 04:46:21;;;;;;;9.2;6.3;;;;;;;-1.22;68.49805;948.1815;;;;
2020/03/23 04:48:50;;;;;;;7.9;6;;;;;;;-1.44;69.36133;948.1801;;;;
2020/03/23 04:51:22;;;;;;;10.6;5.7;;;;;;;-1.34;68.86719;948.2458;;;;
2020/03/23 04:54:08;;;;;;;8.4;5.9;;;;;;;-1.49;68.23145;948.1531;;;;
2020/03/23 04:56:33;;;;;;;7.5;6.1;;;;;;;-1.55;68.67773;948.1998;;;;
2020/03/23 04:58:58;;;;;;;9.4;6.4;;;;;;;-1.62;69.19824;948.269;;;;
2020/03/23 05:01:23;;;;;;;7.9;6.1;;;;;;;-1.58;69.25;948.2913;;;;
2020/03/23 05:03:48;;;;;;;8;6.2;;;;;;;-1.49;68.56445;948.353;;;;
2020/03/23 05:06:33;;;;;;;8.3;6.1;;;;;;;-1.49;68.30957;948.2983;;;;
2020/03/23 05:08:58;;;;;;;8.5;6.2;;;;;;;-1.51;68.81641;948.3825;;;;
2020/03/23 05:11:23;;;;;;;8.3;6.2;;;;;;;-1.63;68.87402;948.4277;;;;
2020/03/23 05:13:48;;;;;;;9.7;6.2;;;;;;;-1.58;68.5293;948.399;;;;
2020/03/23 05:16:13;;;;;;;8.4;6.2;;;;;;;-1.76;69.30762;948.4364;;;;
2020/03/23 05:18:39;;;;;;;9.1;6.6;;;;;;;-1.66;69.125;948.516;;;;
2020/03/23 05:23:03;;;;;;;10.3;6.3;;;;;;;-1.66;69.39063;948.5764;;;;
2020/03/23 05:25:28;;;;;;;8.9;6.4;;;;;;;-1.69;69.22168;948.613;;;;
2020/03/23 05:27:54;;;;;;;9;6.7;;;;;;;-1.59;69.01563;948.5914;;;;
2020/03/23 05:30:19;;;;;;;8.8;6.5;;;;;;;-1.68;69.79883;948.4791;;;;
2020/03/23 05:32:44;;;;;;;8.6;6.5;;;;;;;-1.79;69.95801;948.585;;;;
2020/03/23 05:35:09;;;;;;;9;6.8;;;;;;;-1.81;70.35449;948.5264;;;;
2020/03/23 05:37:34;;;;;;;8.2;6.5;;;;;;;-1.76;70.38574;948.6063;;;;
2020/03/23 05:39:59;;;;;;;9.6;6.4;;;;;;;-1.66;70.0127;948.6434;;;;
2020/03/23 05:42:24;;;;;;;10.7;6.3;;;;;;;-1.56;69.70703;948.6703;;;;
2020/03/23 05:44:50;;;;;;;9.3;6.4;;;;;;;-1.5;69.4082;948.6016;;;;
2020/03/23 05:47:19;;;;;;;9.3;6.4;;;;;;;-1.48;69.61133;948.6873;;;;
2020/03/23 05:49:59;;;;;;;14.1;6.5;;;;;;;-1.56;70.61719;948.7104;;;;
2020/03/23 05:52:24;;;;;;;10.1;6.7;;;;;;;-1.54;70.33301;948.7483;;;;
2020/03/23 05:55:01;;;;;;;9.7;6.7;;;;;;;-1.68;70.55273;948.7045;;;;
2020/03/23 05:57:26;;;;;;;9.8;6.1;;;;;;;-1.73;71.18848;948.7486;;;;
2020/03/23 05:59:51;;;;;;;8.8;6.2;;;;;;;-1.76;71.18262;948.748;;;;
2020/03/23 06:02:17;;;;;;;9.4;6.6;;;;;;;-1.88;70.80762;948.7592;;;;
2020/03/23 06:04:42;;;;;;;8.9;6.4;;;;;;;-1.89;71.05957;948.7226;;;;
2020/03/23 06:07:07;;;;;;;10.2;6.5;;;;;;;-1.72;70.84668;948.7004;;;;
2020/03/23 06:09:39;;;;;;;8;6.3;;;;;;;-1.48;69.59961;948.7427;;;;
2020/03/23 06:12:04;;;;;;;8.8;6.4;;;;;;;-1.41;69.70996;948.788;;;;
2020/03/23 06:14:29;;;;;;;10.1;6.6;;;;;;;-1.29;69.14063;948.7819;;;;
2020/03/23 06:16:54;;;;;;;9.3;6.5;;;;;;;-1.17;68.69531;948.8;;;;
2020/03/23 06:19:42;;;;;;;10.3;6;;;;;;;-1;68.34375;948.8711;;;;
2020/03/23 06:22:13;;;;;;;9.9;6.4;;;;;;;-0.76;67.62793;948.7234;;;;
2020/03/23 06:27:00;;;;;;;7.4;5.3;;;;;;;-0.49;67.01563;948.8058;;;;
2020/03/23 06:29:22;;;;;;;9.2;5.2;;;;;;;0.95;62.85547;948.8386;;;;
2020/03/23 06:31:48;;;;;;;9.5;5.5;;;;;;;2.43;56.91504;948.8069;;;;
2020/03/23 06:34:12;;;;;;;7.3;5.1;;;;;;;3.53;53.78125;948.7523;;;;
2020/03/23 06:36:38;;;;;;;8.8;5.2;;;;;;;4.79;49.86328;948.801;;;;
2020/03/23 06:39:20;;;;;;;7.1;4.9;;;;;;;5.35;47.41309;948.7689;;;;
2020/03/23 06:41:51;;;;;;;8.6;4.6;;;;;;;5.99;45.6875;948.8328;;;;
2020/03/23 06:44:24;;;;;;;8.5;4.8;;;;;;;6.86;43.05273;948.7955;;;;
2020/03/23 06:46:49;;;;;;;6.1;4.3;;;;;;;6.95;42.83496;948.7983;;;;
2020/03/23 06:49:14;;;;;;;8.5;4.9;;;;;;;7.17;41.69043;948.7866;;;;
2020/03/23 06:51:40;;;;;;;7.6;5;;;;;;;7.28;41.58691;948.8632;;;;
2020/03/23 06:54:05;;;;;;;6;4.5;;;;;;;6.83;42.34668;948.8613;;;;
2020/03/23 06:56:31;;;;;;;6.9;4.9;;;;;;;5.96;45.09668;948.8947;;;;
2020/03/23 06:58:56;;;;;;;5.6;4.2;;;;;;;6.19;44.02441;948.8328;;;;
2020/03/23 07:01:21;;;;;;;6.5;4.4;;;;;;;6.47;43.2959;948.9205;;;;
2020/03/23 07:03:46;;;;;;;6.2;4.3;;;;;;;6.9;42.64746;948.88;;;;
2020/03/23 07:06:11;;;;;;;6.9;4.3;;;;;;;7.09;41.84082;948.8413;;;;
2020/03/23 07:08:38;;;;;;;7.9;4.7;;;;;;;7.44;40.73047;948.9568;;;;
2020/03/23 07:11:23;;;;;;;7.2;4.2;;;;;;;6.77;42.18262;948.9087;;;;
2020/03/23 07:13:57;;;;;;;5.4;4.1;;;;;;;6.88;41.06055;948.9821;;;;
2020/03/23 07:16:37;;;;;;;6.8;4.6;;;;;;;6.84;41.23828;948.9578;;;;
2020/03/23 07:19:02;;;;;;;5.9;3.9;;;;;;;7;40.33594;948.9854;;;;
2020/03/23 07:21:27;;;;;;;6.8;4.5;;;;;;;7.36;40.74512;948.9954;;;;
2020/03/23 07:23:52;;;;;;;6.8;4.2;;;;;;;7.33;40.0166;949.0204;;;;
2020/03/23 07:26:17;;;;;;;7.5;4.4;;;;;;;7;41.0498;948.9426;;;;
2020/03/23 07:28:42;;;;;;;6;4.2;;;;;;;6.99;41.89941;948.9745;;;;
2020/03/23 07:31:07;;;;;;;6.1;4.4;;;;;;;7.17;41.05566;949.0066;;;;
2020/03/23 07:33:33;;;;;;;6.3;4.5;;;;;;;7.72;39.71191;948.9762;;;;
2020/03/23 07:35:58;;;;;;;7.6;4.6;;;;;;;7.93;40.03906;948.9628;;;;
2020/03/23 07:38:41;;;;;;;6.8;4.2;;;;;;;8.04;39.48145;949.034;;;;
2020/03/23 07:41:06;;;;;;;6.8;4.3;;;;;;;8.47;38.15723;948.9651;;;;
2020/03/23 07:43:31;;;;;;;8.6;4.5;;;;;;;8.75;38.0791;948.9447;;;;
2020/03/23 07:45:56;;;;;;;9.6;4.3;;;;;;;9.41;37.05664;948.9047;;;;
2020/03/23 07:48:21;;;;;;;13.3;4.6;;;;;;;10.25;35.1084;948.9231;;;;
2020/03/23 07:50:46;;;;;;;7.2;4.1;;;;;;;10.61;34.23535;948.9278;;;;
2020/03/23 07:53:12;;;;;;;6.8;4.2;;;;;;;10.48;34.11133;948.9113;;;;
2020/03/23 07:55:37;;;;;;;5.6;3.9;;;;;;;10.68;33.76172;948.866;;;;
2020/03/23 07:58:02;;;;;;;8;3.9;;;;;;;10.93;32.82129;948.9522;;;;
2020/03/23 08:00:27;;;;;;;5.6;3.6;;;;;;;10.54;34.12695;949.0035;;;;
2020/03/23 08:02:52;;;;;;;7.3;3.8;;;;;;;11.49;32.31348;948.9697;;;;
2020/03/23 08:05:17;;;;;;;5.7;3.8;;;;;;;12.02;31.41406;948.9939;;;;
2020/03/23 08:07:52;;;;;;;4.3;3.4;;;;;;;13.31;30.01367;948.9925;;;;
2020/03/23 08:10:17;;;;;;;6.1;3.8;;;;;;;13.43;30.10254;948.9645;;;;
2020/03/23 08:13:00;;;;;;;4.5;3.6;;;;;;;14.29;27.58203;948.9088;;;;
2020/03/23 08:15:25;;;;;;;3.8;3.1;;;;;;;14.64;26.56641;948.9328;;;;
2020/03/23 08:17:51;;;;;;;4.6;3.3;;;;;;;13.43;28.22949;948.9196;;;;
2020/03/23 08:20:16;;;;;;;5.3;3.3;;;;;;;12.55;30.04199;948.9658;;;;
2020/03/23 08:22:41;;;;;;;4.2;3.2;;;;;;;13.66;28.86523;948.9073;;;;
2020/03/23 08:25:06;;;;;;;4.8;3.4;;;;;;;13.96;28.75781;948.8926;;;;
2020/03/23 08:27:53;;;;;;;4.9;3.3;;;;;;;13.25;29.37793;948.8933;;;;
2020/03/23 08:30:18;;;;;;;5.2;3.4;;;;;;;13.21;29.06445;948.8939;;;;
2020/03/23 08:32:44;;;;;;;5.3;3.2;;;;;;;12.87;29.73145;948.9124;;;;
2020/03/23 08:35:30;;;;;;;5;3.3;;;;;;;13.01;29.28125;948.897;;;;
2020/03/23 08:38:00;;;;;;;5.4;3.3;;;;;;;13.15;29.37109;948.8566;;;;
2020/03/23 08:40:26;;;;;;;4.8;3.1;;;;;;;13.1;29.72461;948.8391;;;;
2020/03/23 08:42:54;;;;;;;4.5;3.1;;;;;;;12.78;30.91797;948.7394;;;;
2020/03/23 08:45:27;;;;;;;4.3;3.2;;;;;;;13.29;28.94336;948.7714;;;;
2020/03/23 08:47:52;;;;;;;4.7;3.2;;;;;;;12.98;29.85352;948.7839;;;;
2020/03/23 08:50:27;;;;;;;3.6;3;;;;;;;12.67;30.25684;948.8486;;;;
2020/03/23 08:52:53;;;;;;;4.5;3.1;;;;;;;13.2;29.39746;948.8234;;;;
2020/03/23 08:55:26;;;;;;;4.2;3;;;;;;;12.69;29.39746;948.7594;;;;
2020/03/23 08:57:51;;;;;;;3.7;3;;;;;;;13.33;29.10742;948.7553;;;;
2020/03/23 09:00:16;;;;;;;4.5;3.2;;;;;;;12.79;29.53125;948.7341;;;;
2020/03/23 09:02:41;;;;;;;3.6;2.9;;;;;;;12.74;29.44629;948.7458;;;;
2020/03/23 09:05:07;;;;;;;4.2;3;;;;;;;12.1;31.03027;948.8046;;;;
2020/03/23 09:07:31;;;;;;;4.8;3.1;;;;;;;12.32;30.56445;948.791;;;;
2020/03/23 09:10:00;;;;;;;3.9;2.9;;;;;;;12.31;30.21973;948.8003;;;;
2020/03/23 09:12:25;;;;;;;3.8;3.1;;;;;;;12.35;30.91016;948.7651;;;;
2020/03/23 09:14:52;;;;;;;3.9;3.2;;;;;;;12.48;30.88574;948.7385;;;;
2020/03/23 09:17:18;;;;;;;4.8;3.2;;;;;;;11.85;31.59766;948.7673;;;;
2020/03/23 09:20:02;;;;;;;4.2;3.2;;;;;;;11.51;32.09766;948.7356;;;;
2020/03/23 09:22:27;;;;;;;4.4;3.3;;;;;;;11.31;33.73047;948.7084;;;;
2020/03/23 09:25:05;;;;;;;4.4;3.6;;;;;;;11.08;33.36914;948.7745;;;;
2020/03/23 09:27:30;;;;;;;7.1;3.4;;;;;;;11.09;35.28027;948.7859;;;;
2020/03/23 09:30:05;;;;;;;4.6;3.3;;;;;;;12.24;31.40723;948.7822;;;;
2020/03/23 09:32:30;;;;;;;5.6;3.5;;;;;;;12.62;29.96582;948.6487;;;;
2020/03/23 09:35:19;;;;;;;5.4;3.3;;;;;;;11.88;31.98828;948.7256;;;;
2020/03/23 09:37:44;;;;;;;5.1;3.2;;;;;;;12.18;31.33398;948.7303;;;;
2020/03/23 09:40:09;;;;;;;4.7;3.4;;;;;;;12.13;30.90625;948.6448;;;;
2020/03/23 09:42:41;;;;;;;4.4;3.3;;;;;;;10.98;32.95117;948.5885;;;;
2020/03/23 09:45:18;;;;;;;5.9;3.4;;;;;;;11.32;33.25098;948.6312;;;;
2020/03/23 09:47:51;;;;;;;5.5;3.8;;;;;;;11.02;34.66797;948.6296;;;;
2020/03/23 09:50:39;;;;;;;5.6;3.6;;;;;;;10.75;34.6582;948.6486;;;;
2020/03/23 09:53:04;;;;;;;4.7;3.6;;;;;;;10.31;34.8291;948.6334;;;;
2020/03/23 09:55:30;;;;;;;4.4;3.5;;;;;;;10.96;33.22363;948.6693;;;;
2020/03/23 09:57:55;;;;;;;5.4;3.8;;;;;;;10.8;34.91406;948.661;;;;
2020/03/23 10:00:20;;;;;;;4.8;3.6;;;;;;;11.09;34.33105;948.6608;;;;
2020/03/23 10:02:45;;;;;;;5.1;3.7;;;;;;;10.55;34.33301;948.6326;;;;
2020/03/23 10:05:10;;;;;;;5.5;3.6;;;;;;;10.85;33.82031;948.6697;;;;
2020/03/23 10:07:35;;;;;;;5.7;3.6;;;;;;;11.32;33.63965;948.6856;;;;
2020/03/23 10:10:00;;;;;;;6.1;4;;;;;;;10.7;35.19043;948.6337;;;;
2020/03/23 10:12:26;;;;;;;5.5;3.9;;;;;;;10.4;34.49316;948.6589;;;;
2020/03/23 10:15:03;;;;;;;4.8;3.7;;;;;;;10.51;35.59863;948.6255;;;;
2020/03/23 10:17:28;;;;;;;5.1;3.8;;;;;;;9.76;35.00098;948.5739;;;;
2020/03/23 10:20:14;;;;;;;6;3.9;;;;;;;9.53;35.72266;948.4755;;;;
2020/03/23 10:22:39;;;;;;;6.1;3.9;;;;;;;9.68;35.88281;948.5087;;;;
2020/03/23 10:25:04;;;;;;;5.6;3.9;;;;;;;10.11;34.8916;948.457;;;;
2020/03/23 10:27:45;;;;;;;4.6;3.8;;;;;;;10.1;33.65918;948.4041;;;;
2020/03/23 10:30:27;;;;;;;5.6;3.8;;;;;;;9.73;35.29492;948.4792;;;;
2020/03/23 10:32:52;;;;;;;4.6;3.5;;;;;;;10.1;35.19922;948.448;;;;
2020/03/23 10:35:17;;;;;;;5.6;3.6;;;;;;;10.79;34.00977;948.385;;;;
2020/03/23 10:37:49;;;;;;;4.7;3.5;;;;;;;10.82;34.38867;948.3463;;;;
2020/03/23 10:40:15;;;;;;;4.7;3.5;;;;;;;11.35;33.21875;948.3824;;;;
2020/03/23 10:42:40;;;;;;;5;3.7;;;;;;;11;34.3584;948.2502;;;;
2020/03/23 10:45:05;;;;;;;4.6;3.5;;;;;;;10.59;34.47363;948.2673;;;;
2020/03/23 10:47:30;;;;;;;4.9;3.9;;;;;;;10.1;34.43457;948.1989;;;;
2020/03/23 10:50:00;;;;;;;5.5;3.8;;;;;;;10.11;35.95215;948.2516;;;;
2020/03/23 10:52:27;;;;;;;5.2;3.8;;;;;;;11.27;35.15723;948.2658;;;;
2020/03/23 10:54:52;;;;;;;5.5;3.5;;;;;;;11.32;32.81641;948.1951;;;;
2020/03/23 10:57:23;;;;;;;4.8;3.4;;;;;;;11.74;30.58105;948.1969;;;;
2020/03/23 11:02:39;;;;;;;4.2;3.3;;;;;;;12;31.71094;948.0575;;;;
2020/03/23 11:05:17;;;;;;;4.4;3.2;;;;;;;12.56;30.27246;948.0001;;;;
2020/03/23 11:08:03;;;;;;;4.8;3.1;;;;;;;12.18;31.20801;947.9231;;;;
2020/03/23 11:10:28;;;;;;;4.2;3.2;;;;;;;11.14;32.19727;947.9278;;;;
2020/03/23 11:13:06;;;;;;;6.1;3.2;;;;;;;12.41;30.00879;947.8644;;;;
2020/03/23 11:15:34;;;;;;;4.4;3.2;;;;;;;13.34;29.42969;947.8939;;;;
2020/03/23 11:17:58;;;;;;;4.7;3.1;;;;;;;14.25;25.89844;947.7481;;;;
2020/03/23 11:20:23;;;;;;;3.9;3.1;;;;;;;15.02;25.75879;947.6876;;;;
2020/03/23 11:22:50;;;;;;;4.3;2.9;;;;;;;15.14;24.60156;947.7502;;;;
2020/03/23 11:25:13;;;;;;;4;3.3;;;;;;;14.1;27.16699;947.6766;;;;
2020/03/23 11:27:39;;;;;;;4.1;3.1;;;;;;;13.21;28.51367;947.6702;;;;
2020/03/23 11:30:16;;;;;;;5.8;3.1;;;;;;;13.4;28.79102;947.678;;;;
2020/03/23 11:32:39;;;;;;;4.7;3.2;;;;;;;12.78;30.12598;947.6451;;;;
2020/03/23 11:35:06;;;;;;;3.7;2.9;;;;;;;13.94;26.77832;947.6448;;;;
2020/03/23 11:37:31;;;;;;;7.3;2.9;;;;;;;14.64;25.25293;947.6214;;;;
2020/03/23 11:40:08;;;;;;;3.8;2.9;;;;;;;14.73;25.13184;947.6823;;;;
2020/03/23 11:42:35;;;;;;;4.3;2.8;;;;;;;15;25.76953;947.5211;;;;
2020/03/23 11:45:00;;;;;;;4.3;2.8;;;;;;;13.79;26.37793;947.5627;;;;
2020/03/23 11:47:25;;;;;;;3.6;3;;;;;;;13.47;27.54199;947.5808;;;;
2020/03/23 11:49:52;;;;;;;4.1;2.9;;;;;;;14.52;25.82227;947.5695;;;;
2020/03/23 11:52:17;;;;;;;4.7;2.9;;;;;;;14.18;26.18262;947.5733;;;;
2020/03/23 11:54:56;;;;;;;4.5;2.9;;;;;;;13.09;27.15039;947.6674;;;;
2020/03/23 11:57:29;;;;;;;4;2.7;;;;;;;13.31;27.06055;947.5983;;;;
2020/03/23 11:59:58;;;;;;;4.3;2.9;;;;;;;13.22;27.15918;947.5939;;;;
2020/03/23 12:02:42;;;;;;;3.9;3;;;;;;;12.63;29.27832;947.618;;;;
2020/03/23 12:05:03;;;;;;;4.5;3.1;;;;;;;14.72;26.22559;947.5073;;;;
2020/03/23 12:07:35;;;;;;;5.1;3;;;;;;;14.67;27.47949;947.5318;;;;
2020/03/23 12:10:12;;;;;;;3.8;2.9;;;;;;;17;23.09473;947.4712;;;;
2020/03/23 12:12:25;;;;;;;4.3;2.9;;;;;;;18.1;20.50391;947.4655;;;;
2020/03/23 12:14:50;;;;;;;4.7;2.8;;;;;;;16.23;24.24609;947.4492;;;;
2020/03/23 12:17:15;;;;;;;4.3;2.9;;;;;;;17.22;21.36816;947.4426;;;;
2020/03/23 12:19:44;;;;;;;5.2;2.9;;;;;;;15.56;23.41211;947.5391;;;;
2020/03/23 12:22:08;;;;;;;3.5;2.6;;;;;;;14.24;25.11523;947.4148;;;;
2020/03/23 12:24:33;;;;;;;4.7;2.8;;;;;;;14.1;26.56836;947.4747;;;;
2020/03/23 12:27:19;;;;;;;4;2.8;;;;;;;13.01;27.9834;947.5123;;;;
2020/03/23 12:29:44;;;;;;;4.3;2.8;;;;;;;15.3;24.41406;947.4635;;;;
2020/03/23 12:32:13;;;;;;;3.8;2.7;;;;;;;13.39;26.24902;947.3505;;;;
2020/03/23 12:34:40;;;;;;;3.6;2.7;;;;;;;13.63;26.31055;947.4855;;;;
2020/03/23 12:37:06;;;;;;;3.6;2.8;;;;;;;16.58;21.77637;947.4066;;;;
2020/03/23 12:39:47;;;;;;;4.1;2.9;;;;;;;15.77;23.875;947.3937;;;;
2020/03/23 12:42:34;;;;;;;3.6;2.9;;;;;;;15.94;23.52441;947.4034;;;;
2020/03/23 12:44:59;;;;;;;3.8;2.8;;;;;;;15.42;22.97754;947.2458;;;;
2020/03/23 12:47:24;;;;;;;5.4;2.9;;;;;;;13.94;24.79785;947.1908;;;;
2020/03/23 12:49:52;;;;;;;3.5;2.5;;;;;;;14;23.73145;947.3251;;;;
2020/03/23 12:52:17;;;;;;;4.5;2.8;;;;;;;15.01;24.5127;947.218;;;;
2020/03/23 12:54:42;;;;;;;5.1;3.1;;;;;;;14.4;25.38867;947.3337;;;;
2020/03/23 12:57:07;;;;;;;3.6;2.8;;;;;;;15.7;22.69141;947.265;;;;
2020/03/23 12:59:32;;;;;;;4.1;2.8;;;;;;;14.16;26.25;947.2118;;;;
2020/03/23 13:02:04;;;;;;;4.3;2.7;;;;;;;14.62;23.51172;947.2821;;;;
2020/03/23 13:04:40;;;;;;;3.3;2.7;;;;;;;15.87;22.79297;947.294;;;;
2020/03/23 13:07:05;;;;;;;4.1;2.6;;;;;;;15.58;22.25781;947.2277;;;;
2020/03/23 13:09:31;;;;;;;3.5;2.6;;;;;;;14.02;23.87012;947.1775;;;;
2020/03/23 13:12:35;;;;;;;4.5;2.7;;;;;;;12.81;26.83398;947.1365;;;;
2020/03/23 13:15:17;;;;;;;3.7;3;;;;;;;11.86;28.80273;947.1266;;;;
2020/03/23 13:17:56;;;;;;;4.3;2.7;;;;;;;12.57;27.06055;947.1198;;;;
2020/03/23 13:20:29;;;;;;;3.5;2.7;;;;;;;13.93;25.22266;947.0489;;;;
2020/03/23 13:22:52;;;;;;;6.2;3;;;;;;;14.06;24.14844;947.1163;;;;
2020/03/23 13:25:20;;;;;;;4.4;2.8;;;;;;;12.5;26.89551;947.1146;;;;
2020/03/23 13:27:45;;;;;;;5.1;2.8;;;;;;;12.57;27.01465;947.0894;;;;
2020/03/23 13:30:16;;;;;;;4;2.9;;;;;;;13.99;24.19141;947.0056;;;;
2020/03/23 13:32:43;;;;;;;3.3;2.6;;;;;;;14.49;23.64258;947.0403;;;;
2020/03/23 13:35:08;;;;;;;3.5;2.7;;;;;;;15.09;22.90234;946.9958;;;;
2020/03/23 13:37:34;;;;;;;3.4;2.7;;;;;;;14.7;23.23926;946.962;;;;
2020/03/23 13:40:05;;;;;;;3.8;2.8;;;;;;;14.48;25.02441;946.9897;;;;
2020/03/23 13:42:30;;;;;;;4.2;2.5;;;;;;;13.35;26.22461;946.9677;;;;
2020/03/23 13:45:06;;;;;;;3.7;2.8;;;;;;;11.21;28.62305;946.8315;;;;
2020/03/23 13:47:32;;;;;;;3.7;2.9;;;;;;;10.65;29.46582;946.9352;;;;
2020/03/23 13:49:58;;;;;;;6.7;3;;;;;;;10.72;28.45313;946.8411;;;;
2020/03/23 13:52:45;;;;;;;5.7;3.1;;;;;;;10.39;29.45898;947.0223;;;;
2020/03/23 13:55:12;;;;;;;3.7;2.9;;;;;;;11.95;28.46582;946.9056;;;;
2020/03/23 13:57:40;;;;;;;4;2.9;;;;;;;10.75;30.05469;946.9526;;;;
2020/03/23 14:00:05;;;;;;;5;2.8;;;;;;;11.52;27.16699;946.8663;;;;
2020/03/23 14:02:41;;;;;;;4.3;2.9;;;;;;;11.4;26.66699;946.7894;;;;
2020/03/23 14:05:06;;;;;;;4.7;3.1;;;;;;;10.92;28.75098;946.7589;;;;
2020/03/23 14:07:48;;;;;;;5.4;3.2;;;;;;;9.67;29.74023;946.7611;;;;
2020/03/23 14:10:19;;;;;;;3.6;3;;;;;;;9.41;31.14551;946.7604;;;;
2020/03/23 14:12:43;;;;;;;4.1;2.7;;;;;;;9.88;29.50391;946.7933;;;;
2020/03/23 14:15:28;;;;;;;4.3;3.2;;;;;;;9.26;31.62402;946.7424;;;;
2020/03/23 14:17:55;;;;;;;5.9;3;;;;;;;9.76;28.95996;946.7319;;;;
2020/03/23 14:20:20;;;;;;;4.1;2.8;;;;;;;10.42;29.74609;946.8156;;;;
2020/03/23 14:22:45;;;;;;;5.5;2.9;;;;;;;10.19;28.32715;946.7748;;;;
2020/03/23 14:25:19;;;;;;;4.5;3;;;;;;;10.31;28.2207;946.7164;;;;
2020/03/23 14:27:45;;;;;;;3.8;2.9;;;;;;;9.96;30.86621;946.7166;;;;
2020/03/23 14:30:34;;;;;;;3.5;2.8;;;;;;;9.67;29.4209;946.7271;;;;
2020/03/23 14:32:58;;;;;;;4.1;2.9;;;;;;;9.08;30.16602;946.7806;;;;
2020/03/23 14:35:35;;;;;;;5.7;3;;;;;;;8.8;31.4541;946.6085;;;;
2020/03/23 14:38:01;;;;;;;3.5;3;;;;;;;8.25;31.4707;946.7075;;;;
2020/03/23 14:40:27;;;;;;;4.4;3;;;;;;;8.02;32.03223;946.6934;;;;
2020/03/23 14:43:07;;;;;;;3.5;2.9;;;;;;;7.39;32.93848;946.7504;;;;
2020/03/23 14:45:44;;;;;;;4;3.1;;;;;;;6.94;33.46973;946.7479;;;;
2020/03/23 14:47:58;;;;;;;3.8;3.1;;;;;;;7.01;35.21875;946.647;;;;
2020/03/23 14:50:35;;;;;;;6.4;3.5;;;;;;;6.58;35.15039;946.7854;;;;